createdAt,value
2023-05-19T00:00:03.769Z,2.25
2023-05-19T00:02:33.614Z,2.17
2023-05-19T00:05:04.454Z,2.20
2023-05-19T00:07:34.408Z,2.78
2023-05-19T00:12:30.928Z,2.08
2023-05-19T00:14:58.229Z,3.10
2023-05-19T00:17:25.529Z,2.28
2023-05-19T00:19:54.755Z,2.33
2023-05-19T00:22:21.954Z,2.65
2023-05-19T00:24:49.242Z,1.95
2023-05-19T00:27:18.609Z,2.20
2023-05-19T00:29:45.713Z,2.35
2023-05-19T00:32:15.684Z,2.13
2023-05-19T00:34:43.026Z,2.40
2023-05-19T00:37:12.431Z,2.53
2023-05-19T00:39:39.527Z,2.40
2023-05-19T00:42:06.726Z,2.38
2023-05-19T00:44:33.907Z,2.30
2023-05-19T00:47:01.256Z,2.13
2023-05-19T00:49:28.577Z,2.08
2023-05-19T00:51:56.427Z,1.92
2023-05-19T00:54:23.554Z,1.95
2023-05-19T00:56:50.724Z,2.33
2023-05-19T00:59:17.973Z,1.90
2023-05-19T01:01:48.940Z,2.25
2023-05-19T01:04:20.166Z,2.30
2023-05-19T01:06:49.596Z,2.13
2023-05-19T01:09:18.071Z,1.90
2023-05-19T01:11:45.400Z,1.98
2023-05-19T01:14:12.839Z,1.80
2023-05-19T01:17:05.496Z,2.08
2023-05-19T01:19:33.038Z,2.33
2023-05-19T01:22:13.165Z,2.40
2023-05-19T01:25:02.011Z,2.15
2023-05-19T01:27:48.083Z,2.10
2023-05-19T01:30:23.376Z,1.90
2023-05-19T01:32:53.317Z,2.30
2023-05-19T01:35:24.241Z,2.28
2023-05-19T01:37:52.889Z,2.53
2023-05-19T01:40:21.742Z,2.40
2023-05-19T01:42:55.596Z,2.03
2023-05-19T01:45:24.930Z,2.35
2023-05-19T01:47:56.368Z,1.85
2023-05-19T01:50:25.775Z,2.30
2023-05-19T01:52:53.149Z,2.20
2023-05-19T01:55:21.233Z,2.15
2023-05-19T01:57:51.113Z,1.98
2023-05-19T02:00:24.216Z,2.80
2023-05-19T02:03:04.987Z,2.03
2023-05-19T02:05:38.034Z,2.35
2023-05-19T02:08:23.709Z,2.10
2023-05-19T02:11:19.524Z,2.22
2023-05-19T02:13:55.661Z,2.35
2023-05-19T02:16:27.503Z,2.60
2023-05-19T02:18:59.487Z,2.15
2023-05-19T02:21:26.347Z,2.40
2023-05-19T02:23:55.310Z,1.90
2023-05-19T02:26:26.838Z,2.58
2023-05-19T02:28:55.731Z,2.00
2023-05-19T02:31:22.859Z,2.45
2023-05-19T02:33:50.050Z,2.30
2023-05-19T02:36:18.206Z,2.33
2023-05-19T02:38:47.937Z,2.45
2023-05-19T02:41:19.768Z,1.70
2023-05-19T02:43:46.877Z,2.47
2023-05-19T02:46:16.552Z,2.20
2023-05-19T02:48:48.417Z,1.92
2023-05-19T02:51:15.678Z,2.33
2023-05-19T02:53:45.421Z,2.50
2023-05-19T02:56:12.565Z,2.50
2023-05-19T02:58:39.742Z,2.30
2023-05-19T03:01:06.890Z,2.25
2023-05-19T03:03:34.128Z,2.13
2023-05-19T03:06:01.919Z,2.00
2023-05-19T03:08:29.263Z,2.40
2023-05-19T03:10:56.375Z,1.88
2023-05-19T03:13:23.490Z,2.20
2023-05-19T03:15:52.921Z,2.10
2023-05-19T03:18:20.173Z,2.00
2023-05-19T03:20:49.161Z,2.20
2023-05-19T03:23:15.934Z,2.53
2023-05-19T03:25:42.699Z,2.05
2023-05-19T03:28:10.100Z,2.28
2023-05-19T03:30:37.191Z,2.40
2023-05-19T03:33:05.457Z,2.20
2023-05-19T03:35:34.564Z,1.90
2023-05-19T03:38:01.296Z,2.45
2023-05-19T03:40:28.094Z,2.50
2023-05-19T03:42:54.814Z,2.28
2023-05-19T03:45:21.546Z,2.28
2023-05-19T03:47:48.314Z,2.45
2023-05-19T03:50:15.056Z,2.20
2023-05-19T03:52:45.398Z,2.20
2023-05-19T03:55:14.649Z,1.88
2023-05-19T03:57:43.325Z,2.05
2023-05-19T04:00:11.356Z,1.98
2023-05-19T04:02:38.333Z,2.33
2023-05-19T04:05:05.815Z,2.28
2023-05-19T04:07:37.342Z,2.20
2023-05-19T04:10:05.780Z,2.35
2023-05-19T04:12:34.742Z,2.42
2023-05-19T04:15:03.740Z,2.35
2023-05-19T04:17:30.613Z,2.45
2023-05-19T04:19:57.595Z,2.17
2023-05-19T04:22:24.397Z,2.90
2023-05-19T04:24:52.977Z,2.92
2023-05-19T04:27:19.703Z,2.65
2023-05-19T04:29:48.259Z,2.90
2023-05-19T04:32:17.605Z,2.65
2023-05-19T04:34:47.481Z,2.35
2023-05-19T04:37:14.229Z,2.85
2023-05-19T04:39:45.369Z,2.28
2023-05-19T04:42:14.509Z,2.65
2023-05-19T04:44:43.434Z,2.40
2023-05-19T04:47:10.357Z,2.67
2023-05-19T04:49:39.872Z,2.75
2023-05-19T04:52:08.233Z,2.38
2023-05-19T04:54:35.647Z,3.10
2023-05-19T04:57:02.866Z,2.67
2023-05-19T04:59:29.679Z,2.72
2023-05-19T05:01:56.683Z,2.63
2023-05-19T05:04:24.063Z,2.88
2023-05-19T05:06:53.025Z,2.83
2023-05-19T05:09:20.008Z,2.70
2023-05-19T05:11:49.332Z,2.80
2023-05-19T05:14:16.490Z,2.50
2023-05-19T05:16:43.837Z,2.78
2023-05-19T05:19:11.110Z,2.90
2023-05-19T05:21:38.189Z,2.60
2023-05-19T05:24:05.345Z,3.08
2023-05-19T05:26:34.356Z,2.53
2023-05-19T05:29:04.071Z,2.83
2023-05-19T05:31:33.413Z,3.53
2023-05-19T05:34:02.402Z,2.53
2023-05-19T05:36:30.709Z,2.58
2023-05-19T05:38:59.387Z,2.72
2023-05-19T05:41:27.381Z,2.58
2023-05-19T05:43:54.160Z,2.85
2023-05-19T05:46:20.905Z,2.67
2023-05-19T05:48:48.083Z,2.70
2023-05-19T05:51:15.106Z,2.38
2023-05-19T05:53:43.287Z,2.83
2023-05-19T05:56:11.313Z,2.45
2023-05-19T05:58:40.600Z,2.67
2023-05-19T06:01:11.081Z,2.80
2023-05-19T06:03:42.079Z,2.33
2023-05-19T06:06:08.822Z,2.40
2023-05-19T06:08:35.811Z,2.22
2023-05-19T06:11:09.056Z,2.30
2023-05-19T06:13:36.568Z,2.67
2023-05-19T06:16:03.553Z,2.60
2023-05-19T06:18:30.368Z,2.40
2023-05-19T06:20:57.328Z,2.58
2023-05-19T06:23:28.958Z,2.63
2023-05-19T06:25:56.409Z,2.83
2023-05-19T06:28:23.580Z,2.42
2023-05-19T06:30:50.473Z,2.45
2023-05-19T06:33:19.410Z,2.78
2023-05-19T06:35:46.172Z,2.55
2023-05-19T06:38:12.898Z,2.28
2023-05-19T06:40:39.777Z,2.35
2023-05-19T06:43:06.573Z,2.10
2023-05-19T06:45:33.430Z,2.20
2023-05-19T06:48:00.646Z,2.17
2023-05-19T06:50:27.592Z,2.50
2023-05-19T06:52:54.454Z,1.90
2023-05-19T06:55:21.324Z,2.10
2023-05-19T06:57:50.643Z,2.45
2023-05-19T07:00:19.975Z,2.08
2023-05-19T07:02:49.057Z,2.25
2023-05-19T07:05:20.540Z,2.13
2023-05-19T07:07:47.300Z,1.90
2023-05-19T07:10:16.241Z,2.03
2023-05-19T07:12:45.616Z,1.90
2023-05-19T07:15:12.346Z,2.20
2023-05-19T07:17:39.611Z,1.70
2023-05-19T07:20:12.381Z,2.78
2023-05-19T07:22:40.156Z,2.00
2023-05-19T07:25:08.073Z,2.53
2023-05-19T07:27:35.811Z,1.92
2023-05-19T07:30:05.777Z,1.90
2023-05-19T07:32:35.408Z,1.95
2023-05-19T07:35:02.768Z,2.08
2023-05-19T07:37:29.966Z,1.83
2023-05-19T07:39:57.085Z,2.17
2023-05-19T07:42:23.902Z,2.13
2023-05-19T07:44:50.671Z,1.85
2023-05-19T07:47:17.403Z,2.00
2023-05-19T07:49:48.146Z,1.55
2023-05-19T07:52:19.058Z,1.90
2023-05-19T07:54:46.097Z,2.17
2023-05-19T07:57:14.481Z,1.83
2023-05-19T07:59:41.272Z,1.80
2023-05-19T08:02:10.420Z,1.50
2023-05-19T08:04:37.318Z,1.67
2023-05-19T08:07:04.195Z,1.70
2023-05-19T08:09:30.961Z,1.92
2023-05-19T08:12:01.514Z,1.50
2023-05-19T08:14:28.294Z,2.20
2023-05-19T08:16:55.014Z,2.25
2023-05-19T08:19:21.922Z,1.95
2023-05-19T08:21:49.694Z,2.05
2023-05-19T08:24:16.595Z,1.90
2023-05-19T08:26:44.481Z,2.10
2023-05-19T08:29:13.372Z,1.65
2023-05-19T08:31:42.517Z,1.77
2023-05-19T08:34:09.437Z,1.92
2023-05-19T08:36:36.150Z,1.52
2023-05-19T08:39:05.052Z,2.03
2023-05-19T08:41:32.207Z,1.67
2023-05-19T08:43:59.615Z,1.85
2023-05-19T08:46:27.926Z,1.75
2023-05-19T08:49:01.445Z,2.03
2023-05-19T08:51:41.523Z,3.30
2023-05-19T08:54:18.264Z,1.92
2023-05-19T08:56:48.152Z,2.67
2023-05-19T08:59:15.888Z,2.10
2023-05-19T09:01:46.448Z,2.17
2023-05-19T09:04:17.022Z,1.90
2023-05-19T09:06:46.387Z,2.00
2023-05-19T09:09:15.999Z,3.13
2023-05-19T09:11:46.453Z,2.00
2023-05-19T09:14:15.988Z,2.00
2023-05-19T09:16:43.404Z,1.90
2023-05-19T09:19:15.578Z,1.67
2023-05-19T09:21:59.880Z,1.75
2023-05-19T09:24:27.078Z,1.90
2023-05-19T09:26:58.023Z,2.05
2023-05-19T09:29:26.655Z,1.98
2023-05-19T09:31:56.101Z,1.83
2023-05-19T09:34:26.825Z,1.65
2023-05-19T09:36:54.406Z,2.30
2023-05-19T09:39:23.373Z,2.20
2023-05-19T09:41:54.715Z,1.93
2023-05-19T09:44:28.806Z,1.95
2023-05-19T09:46:56.267Z,1.50
2023-05-19T09:49:24.627Z,1.83
2023-05-19T09:51:54.700Z,1.67
2023-05-19T09:54:27.502Z,1.92
2023-05-19T09:57:06.633Z,1.73
2023-05-19T09:59:35.747Z,2.03
2023-05-19T10:02:03.235Z,1.70
2023-05-19T10:04:31.060Z,1.50
2023-05-19T10:07:05.411Z,1.83
2023-05-19T10:09:35.999Z,2.13
2023-05-19T10:12:05.556Z,1.77
2023-05-19T10:14:34.676Z,1.65
2023-05-19T10:17:01.511Z,1.90
2023-05-19T10:19:29.328Z,2.00
2023-05-19T10:21:56.878Z,1.80
2023-05-19T10:24:23.669Z,1.77
2023-05-19T10:27:09.952Z,2.08
2023-05-19T10:29:40.538Z,1.85
2023-05-19T10:32:11.653Z,1.80
2023-05-19T10:35:04.793Z,1.70
2023-05-19T10:37:43.366Z,1.83
2023-05-19T10:40:13.788Z,1.80
2023-05-19T10:42:48.263Z,1.58
2023-05-19T10:45:22.077Z,1.75
2023-05-19T10:47:51.650Z,1.95
2023-05-19T10:50:21.409Z,1.85
2023-05-19T10:52:55.718Z,1.90
2023-05-19T10:55:41.687Z,1.58
2023-05-19T10:58:11.237Z,1.48
2023-05-19T11:00:41.637Z,2.22
2023-05-19T11:03:16.088Z,1.50
2023-05-19T11:05:45.658Z,1.95
2023-05-19T11:08:15.797Z,1.80
2023-05-19T11:10:48.030Z,2.13
2023-05-19T11:13:22.759Z,1.52
2023-05-19T11:15:50.411Z,1.60
2023-05-19T11:18:19.923Z,1.98
2023-05-19T11:20:58.117Z,2.05
2023-05-19T11:23:26.701Z,1.50
2023-05-19T11:25:56.297Z,1.80
2023-05-19T11:28:28.124Z,1.55
2023-05-19T11:30:57.589Z,1.90
2023-05-19T11:33:28.131Z,1.85
2023-05-19T11:35:59.568Z,1.77
2023-05-19T11:38:28.571Z,1.80
2023-05-19T11:40:56.405Z,2.03
2023-05-19T11:43:24.685Z,1.65
2023-05-19T11:45:51.935Z,1.75
2023-05-19T11:48:23.722Z,2.55
2023-05-19T11:50:51.051Z,1.85
2023-05-19T11:53:19.487Z,1.65
2023-05-19T11:55:47.219Z,1.67
2023-05-19T11:58:17.327Z,1.58
2023-05-19T12:00:47.368Z,1.80
2023-05-19T12:03:21.389Z,2.30
2023-05-19T12:05:49.555Z,1.85
2023-05-19T12:08:18.706Z,1.98
2023-05-19T12:10:49.517Z,1.70
2023-05-19T12:13:22.607Z,1.90
2023-05-19T12:15:56.823Z,2.25
2023-05-19T12:18:26.878Z,2.20
2023-05-19T12:20:57.188Z,1.98
2023-05-19T12:23:30.610Z,2.22
2023-05-19T12:26:02.807Z,2.05
2023-05-19T12:28:32.752Z,1.95
2023-05-19T12:31:00.169Z,1.60
2023-05-19T12:33:27.331Z,1.42
2023-05-19T12:35:57.127Z,1.50
2023-05-19T12:38:24.444Z,1.70
2023-05-19T12:40:52.073Z,1.52
2023-05-19T12:43:22.941Z,2.42
2023-05-19T12:45:50.312Z,1.70
2023-05-19T12:48:22.698Z,2.00
2023-05-19T12:50:55.476Z,2.08
2023-05-19T12:53:22.769Z,1.70
2023-05-19T12:55:53.105Z,1.98
2023-05-19T12:58:23.178Z,1.60
2023-05-19T13:00:50.911Z,1.65
2023-05-19T13:03:19.649Z,1.70
2023-05-19T13:05:48.088Z,1.73
2023-05-19T13:08:19.872Z,1.73
2023-05-19T13:10:47.747Z,1.73
2023-05-19T13:13:17.290Z,1.75
2023-05-19T13:18:13.341Z,1.48
2023-05-19T13:20:42.014Z,1.80
2023-05-19T13:23:11.091Z,1.87
2023-05-19T13:25:38.158Z,1.98
2023-05-19T13:28:05.871Z,1.70
2023-05-19T13:30:34.654Z,1.65
2023-05-19T13:33:02.322Z,1.77
2023-05-19T13:35:29.474Z,1.65
2023-05-19T13:37:56.273Z,2.00
2023-05-19T13:40:24.128Z,1.70
2023-05-19T13:42:53.343Z,1.55
2023-05-19T13:45:22.666Z,1.77
2023-05-19T13:47:51.916Z,1.77
2023-05-19T13:50:18.927Z,1.77
2023-05-19T13:52:46.196Z,1.67
2023-05-19T13:55:13.440Z,1.60
2023-05-19T13:57:44.196Z,1.77
2023-05-19T14:00:13.943Z,1.70
2023-05-19T14:02:41.336Z,1.70
2023-05-19T14:05:08.831Z,1.73
2023-05-19T14:07:38.420Z,1.90
2023-05-19T14:10:06.897Z,1.60
2023-05-19T14:12:45.022Z,1.38
2023-05-19T14:15:19.661Z,2.13
2023-05-19T14:17:48.950Z,1.73
2023-05-19T14:20:16.319Z,1.50
2023-05-19T14:22:45.985Z,1.95
2023-05-19T14:25:13.200Z,1.58
2023-05-19T14:27:40.585Z,1.50
2023-05-19T14:30:08.611Z,1.52
2023-05-19T14:32:36.096Z,1.70
2023-05-19T14:35:06.017Z,1.50
2023-05-19T14:37:33.210Z,1.45
2023-05-19T14:40:04.440Z,1.70
2023-05-19T14:42:34.285Z,1.50
2023-05-19T14:45:03.973Z,1.50
2023-05-19T14:47:31.337Z,1.65
2023-05-19T14:49:58.602Z,1.42
2023-05-19T14:52:26.315Z,1.48
2023-05-19T14:54:53.695Z,2.10
2023-05-19T14:57:21.009Z,1.48
2023-05-19T14:59:48.377Z,1.70
2023-05-19T15:02:15.613Z,1.80
2023-05-19T15:04:42.758Z,1.45
2023-05-19T15:07:10.995Z,1.92
2023-05-19T15:09:38.134Z,1.58
2023-05-19T15:12:05.070Z,1.48
2023-05-19T15:14:31.848Z,1.35
2023-05-19T15:17:01.287Z,1.77
2023-05-19T15:21:57.299Z,1.65
2023-05-19T15:24:24.288Z,1.20
2023-05-19T15:26:51.981Z,1.30
2023-05-19T15:29:18.961Z,1.35
2023-05-19T15:31:45.967Z,1.60
2023-05-19T15:34:12.769Z,1.60
2023-05-19T15:36:42.009Z,1.70
2023-05-19T15:39:09.760Z,1.50
2023-05-19T15:41:36.628Z,1.50
2023-05-19T15:44:03.492Z,2.00
2023-05-19T15:46:30.618Z,1.30
2023-05-19T15:48:57.562Z,1.50
2023-05-19T15:51:24.835Z,1.35
2023-05-19T15:53:51.942Z,1.67
2023-05-19T15:56:22.498Z,1.30
2023-05-19T15:58:49.462Z,1.70
2023-05-19T16:01:17.173Z,1.80
2023-05-19T16:03:49.266Z,1.20
2023-05-19T16:06:18.788Z,1.50
2023-05-19T16:08:45.925Z,1.52
2023-05-19T16:11:15.618Z,1.73
2023-05-19T16:13:42.454Z,1.65
2023-05-19T16:16:09.484Z,2.13
2023-05-19T16:18:36.467Z,2.30
2023-05-19T16:21:03.464Z,1.75
2023-05-19T16:23:30.347Z,1.70
2023-05-19T16:25:57.622Z,1.75
2023-05-19T16:28:25.136Z,1.58
2023-05-19T16:30:52.194Z,1.60
2023-05-19T16:33:18.924Z,1.38
2023-05-19T16:35:45.876Z,1.63
2023-05-19T16:38:12.654Z,1.50
2023-05-19T16:40:39.478Z,1.80
2023-05-19T16:43:06.370Z,1.35
2023-05-19T16:45:33.422Z,1.67
2023-05-19T16:48:00.396Z,1.77
2023-05-19T16:50:27.284Z,1.42
2023-05-19T16:52:54.195Z,1.75
2023-05-19T16:55:25.346Z,1.50
2023-05-19T16:57:52.185Z,1.40
2023-05-19T17:00:19.263Z,1.77
2023-05-19T17:02:46.316Z,1.90
2023-05-19T17:05:13.225Z,1.88
2023-05-19T17:07:40.176Z,1.75
2023-05-19T17:10:07.534Z,1.38
2023-05-19T17:12:34.430Z,1.33
2023-05-19T17:15:01.556Z,1.55
2023-05-19T17:17:28.473Z,2.10
2023-05-19T17:19:55.288Z,1.63
2023-05-19T17:22:22.230Z,1.60
2023-05-19T17:24:51.841Z,1.38
2023-05-19T17:29:45.596Z,1.85
2023-05-19T17:32:12.427Z,1.60
2023-05-19T17:34:41.864Z,1.83
2023-05-19T17:37:08.565Z,1.73
2023-05-19T17:39:37.648Z,1.75
2023-05-19T17:42:04.782Z,1.63
2023-05-19T17:44:31.717Z,1.60
2023-05-19T17:47:02.378Z,1.50
2023-05-19T17:49:29.302Z,1.67
2023-05-19T17:51:56.605Z,1.80
2023-05-19T17:54:26.115Z,1.70
2023-05-19T17:59:19.819Z,1.40
2023-05-19T18:01:51.791Z,1.50
2023-05-19T18:04:18.851Z,1.60
2023-05-19T18:06:46.180Z,1.48
2023-05-19T18:09:14.297Z,1.40
2023-05-19T18:11:41.324Z,1.65
2023-05-19T18:14:08.064Z,1.63
2023-05-19T18:16:34.836Z,1.73
2023-05-19T18:19:04.076Z,1.55
2023-05-19T18:21:31.381Z,1.70
2023-05-19T18:24:03.029Z,1.60
2023-05-19T18:26:33.073Z,1.70
2023-05-19T18:29:04.819Z,1.40
2023-05-19T18:31:31.748Z,1.48
2023-05-19T18:33:58.515Z,1.67
2023-05-19T18:36:27.458Z,1.42
2023-05-19T18:38:58.164Z,1.42
2023-05-19T18:41:26.111Z,1.60
2023-05-19T18:43:55.522Z,1.70
2023-05-19T18:46:22.768Z,1.40
2023-05-19T18:48:52.838Z,1.60
2023-05-19T18:51:21.335Z,2.17
2023-05-19T18:53:51.379Z,1.30
2023-05-19T18:56:25.277Z,1.90
2023-05-19T18:58:55.273Z,1.50
2023-05-19T19:01:22.482Z,1.80
2023-05-19T19:03:49.746Z,1.58
2023-05-19T19:06:17.622Z,1.55
2023-05-19T19:08:45.107Z,1.42
2023-05-19T19:11:12.653Z,1.42
2023-05-19T19:13:42.152Z,1.60
2023-05-19T19:16:09.293Z,1.75
2023-05-19T19:18:36.709Z,1.70
2023-05-19T19:21:05.950Z,1.50
2023-05-19T19:23:33.694Z,2.13
2023-05-19T19:26:01.186Z,1.52
2023-05-19T19:28:28.361Z,1.50
2023-05-19T19:30:55.572Z,1.52
2023-05-19T19:33:22.792Z,1.50
2023-05-19T19:35:50.009Z,1.73
2023-05-19T19:38:19.661Z,1.40
2023-05-19T19:43:14.013Z,1.60
2023-05-19T19:45:43.392Z,1.40
2023-05-19T19:48:11.869Z,1.60
2023-05-19T19:50:39.180Z,2.20
2023-05-19T19:53:06.523Z,1.55
2023-05-19T19:55:36.573Z,1.25
2023-05-19T19:58:03.720Z,1.50
2023-05-19T20:00:33.575Z,1.58
2023-05-19T20:03:04.867Z,2.17
2023-05-19T20:05:35.257Z,1.70
2023-05-19T20:08:02.478Z,1.48
2023-05-19T20:10:29.617Z,1.65
2023-05-19T20:12:58.851Z,1.85
2023-05-19T20:15:28.320Z,1.77
2023-05-19T20:17:55.569Z,1.67
2023-05-19T20:20:22.773Z,1.67
2023-05-19T20:22:49.971Z,1.52
2023-05-19T20:25:17.151Z,1.60
2023-05-19T20:27:44.001Z,1.90
2023-05-19T20:30:13.415Z,1.90
2023-05-19T20:32:42.307Z,1.92
2023-05-19T20:35:11.446Z,1.60
2023-05-19T20:37:44.236Z,1.63
2023-05-19T20:40:14.004Z,1.75
2023-05-19T20:45:16.784Z,1.58
2023-05-19T20:47:43.863Z,1.77
2023-05-19T20:50:11.027Z,1.63
2023-05-19T20:52:43.811Z,1.60
2023-05-19T20:55:11.044Z,1.88
2023-05-19T20:57:37.883Z,2.10
2023-05-19T21:00:05.141Z,1.95
2023-05-19T21:02:34.676Z,2.15
2023-05-19T21:05:01.574Z,1.90
2023-05-19T21:07:28.471Z,1.88
2023-05-19T21:09:56.480Z,2.17
2023-05-19T21:12:25.307Z,1.55
2023-05-19T21:14:52.585Z,2.00
2023-05-19T21:17:21.160Z,1.67
2023-05-19T21:19:50.617Z,1.70
2023-05-19T21:24:45.559Z,1.75
2023-05-19T21:27:12.852Z,2.03
2023-05-19T21:29:40.005Z,1.83
2023-05-19T21:32:09.408Z,1.73
2023-05-19T21:34:36.623Z,1.73
2023-05-19T21:37:03.834Z,1.58
2023-05-19T21:39:33.466Z,1.50
2023-05-19T21:42:00.734Z,1.95
2023-05-19T21:44:27.949Z,1.77
2023-05-19T21:46:55.223Z,2.03
2023-05-19T21:49:22.494Z,2.40
2023-05-19T21:51:49.654Z,2.30
2023-05-19T21:54:16.822Z,2.17
2023-05-19T21:56:46.553Z,2.33
2023-05-19T22:01:43.416Z,1.98
2023-05-19T22:04:10.782Z,2.42
2023-05-19T22:06:37.992Z,2.05
2023-05-19T22:09:05.176Z,2.58
2023-05-19T22:11:32.347Z,1.42
2023-05-19T22:13:59.528Z,1.58
2023-05-19T22:16:26.741Z,1.70
2023-05-19T22:18:56.650Z,1.83
2023-05-19T22:23:52.424Z,1.58
2023-05-19T22:26:19.254Z,1.65
2023-05-19T22:28:45.965Z,2.05
2023-05-19T22:31:14.976Z,2.00
2023-05-19T22:33:41.735Z,2.05
2023-05-19T22:36:10.912Z,3.08
2023-05-19T22:38:37.908Z,4.28
2023-05-19T22:41:04.853Z,3.63
2023-05-19T22:43:31.611Z,2.83
2023-05-19T22:45:58.406Z,2.50
2023-05-19T22:48:27.351Z,2.50
2023-05-19T22:50:54.156Z,2.13
2023-05-19T22:53:20.880Z,2.53
2023-05-19T22:55:47.637Z,1.80
2023-05-19T22:58:14.383Z,1.95
2023-05-19T23:00:43.517Z,1.83
2023-05-19T23:03:11.344Z,1.55
2023-05-19T23:05:38.171Z,2.33
2023-05-19T23:08:05.155Z,1.95
2023-05-19T23:10:31.955Z,1.77
2023-05-19T23:12:58.687Z,1.45
2023-05-19T23:15:27.818Z,1.55
2023-05-19T23:17:54.628Z,1.52
2023-05-19T23:20:21.423Z,1.52
2023-05-19T23:22:48.116Z,1.77
2023-05-19T23:25:17.183Z,1.83
2023-05-19T23:27:46.612Z,1.52
2023-05-19T23:30:13.408Z,1.67
2023-05-19T23:32:42.477Z,1.70
2023-05-19T23:35:10.910Z,1.80
2023-05-19T23:37:37.656Z,1.60
2023-05-19T23:40:05.373Z,1.80
2023-05-19T23:42:32.193Z,1.65
2023-05-19T23:45:01.304Z,1.83
2023-05-19T23:47:28.086Z,2.30
2023-05-19T23:49:57.083Z,1.85
2023-05-19T23:52:23.824Z,1.67
2023-05-19T23:54:50.614Z,1.70
2023-05-19T23:57:17.357Z,1.80
2023-05-19T23:59:44.240Z,1.60
